sensor_id;sensor_type;location;lat;lon;timestamp;temperature;humidity
5128;DHT22;2582;48.770;9.190;2023-12-28T00:01:56;9.70;95.00
5128;DHT22;2582;48.770;9.190;2023-12-28T00:04:21;9.80;94.50
5128;DHT22;2582;48.770;9.190;2023-12-28T00:06:47;9.90;94.30
5128;DHT22;2582;48.770;9.190;2023-12-28T00:09:12;9.90;94.10
5128;DHT22;2582;48.770;9.190;2023-12-28T00:11:38;10.00;93.60
5128;DHT22;2582;48.770;9.190;2023-12-28T00:14:04;10.00;93.80
5128;DHT22;2582;48.770;9.190;2023-12-28T00:16:31;10.10;93.10
5128;DHT22;2582;48.770;9.190;2023-12-28T00:18:58;10.10;93.10
5128;DHT22;2582;48.770;9.190;2023-12-28T00:21:23;10.10;92.90
5128;DHT22;2582;48.770;9.190;2023-12-28T00:23:49;10.10;93.00
5128;DHT22;2582;48.770;9.190;2023-12-28T00:26:14;10.00;93.00
5128;DHT22;2582;48.770;9.190;2023-12-28T00:28:41;10.10;92.50
5128;DHT22;2582;48.770;9.190;2023-12-28T00:31:09;10.10;93.10
5128;DHT22;2582;48.770;9.190;2023-12-28T00:33:34;10.10;92.70
5128;DHT22;2582;48.770;9.190;2023-12-28T00:36:00;10.00;94.00
5128;DHT22;2582;48.770;9.190;2023-12-28T00:38:25;10.00;94.10
5128;DHT22;2582;48.770;9.190;2023-12-28T00:40:51;10.00;94.10
5128;DHT22;2582;48.770;9.190;2023-12-28T00:43:16;9.90;95.40
5128;DHT22;2582;48.770;9.190;2023-12-28T00:45:42;9.50;96.30
5128;DHT22;2582;48.770;9.190;2023-12-28T00:48:08;9.40;96.70
5128;DHT22;2582;48.770;9.190;2023-12-28T00:50:33;9.30;95.10
5128;DHT22;2582;48.770;9.190;2023-12-28T00:52:59;9.50;95.70
5128;DHT22;2582;48.770;9.190;2023-12-28T00:55:24;9.40;95.80
5128;DHT22;2582;48.770;9.190;2023-12-28T00:57:50;9.40;95.90
5128;DHT22;2582;48.770;9.190;2023-12-28T01:00:16;9.50;96.00
5128;DHT22;2582;48.770;9.190;2023-12-28T01:02:41;9.40;96.10
5128;DHT22;2582;48.770;9.190;2023-12-28T01:05:07;9.40;94.70
5128;DHT22;2582;48.770;9.190;2023-12-28T01:07:32;9.50;95.60
5128;DHT22;2582;48.770;9.190;2023-12-28T01:09:58;9.60;95.60
5128;DHT22;2582;48.770;9.190;2023-12-28T01:12:24;9.50;95.20
5128;DHT22;2582;48.770;9.190;2023-12-28T01:14:49;9.50;95.10
5128;DHT22;2582;48.770;9.190;2023-12-28T01:17:15;9.60;94.30
5128;DHT22;2582;48.770;9.190;2023-12-28T01:19:40;9.70;94.30
5128;DHT22;2582;48.770;9.190;2023-12-28T01:22:06;9.70;94.50
5128;DHT22;2582;48.770;9.190;2023-12-28T01:24:31;9.70;94.10
5128;DHT22;2582;48.770;9.190;2023-12-28T01:26:57;9.80;94.90
5128;DHT22;2582;48.770;9.190;2023-12-28T01:29:22;9.80;94.70
5128;DHT22;2582;48.770;9.190;2023-12-28T01:31:48;9.60;95.30
5128;DHT22;2582;48.770;9.190;2023-12-28T01:34:13;9.60;95.70
5128;DHT22;2582;48.770;9.190;2023-12-28T01:36:39;9.50;96.30
5128;DHT22;2582;48.770;9.190;2023-12-28T01:39:08;9.20;96.30
5128;DHT22;2582;48.770;9.190;2023-12-28T01:41:36;9.10;97.50
5128;DHT22;2582;48.770;9.190;2023-12-28T01:44:01;8.90;98.30
5128;DHT22;2582;48.770;9.190;2023-12-28T01:46:27;8.70;98.60
5128;DHT22;2582;48.770;9.190;2023-12-28T01:48:53;8.60;98.90
5128;DHT22;2582;48.770;9.190;2023-12-28T01:51:20;8.60;98.90
5128;DHT22;2582;48.770;9.190;2023-12-28T01:53:47;8.70;97.60
5128;DHT22;2582;48.770;9.190;2023-12-28T01:56:15;8.70;98.70
5128;DHT22;2582;48.770;9.190;2023-12-28T01:58:43;8.70;98.90
5128;DHT22;2582;48.770;9.190;2023-12-28T02:01:10;8.40;98.80
5128;DHT22;2582;48.770;9.190;2023-12-28T02:03:36;8.50;98.60
5128;DHT22;2582;48.770;9.190;2023-12-28T02:06:02;8.60;98.70
5128;DHT22;2582;48.770;9.190;2023-12-28T02:08:28;8.50;99.30
5128;DHT22;2582;48.770;9.190;2023-12-28T02:10:54;8.60;98.90
5128;DHT22;2582;48.770;9.190;2023-12-28T02:13:21;8.50;99.10
5128;DHT22;2582;48.770;9.190;2023-12-28T02:15:48;8.50;98.90
5128;DHT22;2582;48.770;9.190;2023-12-28T02:18:20;8.60;98.40
5128;DHT22;2582;48.770;9.190;2023-12-28T02:20:47;8.80;98.30
5128;DHT22;2582;48.770;9.190;2023-12-28T02:23:14;8.80;98.70
5128;DHT22;2582;48.770;9.190;2023-12-28T02:25:40;8.70;98.80
5128;DHT22;2582;48.770;9.190;2023-12-28T02:28:06;8.70;98.10
5128;DHT22;2582;48.770;9.190;2023-12-28T02:30:31;8.90;97.10
5128;DHT22;2582;48.770;9.190;2023-12-28T02:33:19;9.00;98.00
5128;DHT22;2582;48.770;9.190;2023-12-28T02:35:51;8.90;98.90
5128;DHT22;2582;48.770;9.190;2023-12-28T02:38:17;8.80;98.90
5128;DHT22;2582;48.770;9.190;2023-12-28T02:40:44;8.80;98.90
5128;DHT22;2582;48.770;9.190;2023-12-28T02:43:11;8.70;99.60
5128;DHT22;2582;48.770;9.190;2023-12-28T02:45:37;8.60;99.80
5128;DHT22;2582;48.770;9.190;2023-12-28T02:48:03;8.40;99.90
5128;DHT22;2582;48.770;9.190;2023-12-28T02:50:29;8.50;99.90
5128;DHT22;2582;48.770;9.190;2023-12-28T02:52:58;8.50;99.90
5128;DHT22;2582;48.770;9.190;2023-12-28T02:55:24;8.50;99.90
5128;DHT22;2582;48.770;9.190;2023-12-28T02:57:51;8.50;99.80
5128;DHT22;2582;48.770;9.190;2023-12-28T03:00:17;8.60;99.90
5128;DHT22;2582;48.770;9.190;2023-12-28T03:02:43;8.50;99.90
5128;DHT22;2582;48.770;9.190;2023-12-28T03:05:09;8.50;99.90
5128;DHT22;2582;48.770;9.190;2023-12-28T03:07:34;8.30;99.90
5128;DHT22;2582;48.770;9.190;2023-12-28T03:10:01;8.40;99.90
5128;DHT22;2582;48.770;9.190;2023-12-28T03:12:28;8.10;99.90
5128;DHT22;2582;48.770;9.190;2023-12-28T03:14:54;8.10;99.90
5128;DHT22;2582;48.770;9.190;2023-12-28T03:17:19;8.00;99.90
5128;DHT22;2582;48.770;9.190;2023-12-28T03:19:45;7.90;99.90
5128;DHT22;2582;48.770;9.190;2023-12-28T03:22:11;7.80;99.90
5128;DHT22;2582;48.770;9.190;2023-12-28T03:24:37;7.80;99.90
5128;DHT22;2582;48.770;9.190;2023-12-28T03:27:04;7.80;99.90
5128;DHT22;2582;48.770;9.190;2023-12-28T03:29:29;7.80;99.90
5128;DHT22;2582;48.770;9.190;2023-12-28T03:31:55;7.70;99.90
5128;DHT22;2582;48.770;9.190;2023-12-28T03:34:21;7.70;99.90
5128;DHT22;2582;48.770;9.190;2023-12-28T03:36:48;7.60;99.90
5128;DHT22;2582;48.770;9.190;2023-12-28T03:39:13;7.60;99.90
5128;DHT22;2582;48.770;9.190;2023-12-28T03:41:39;7.60;99.90
5128;DHT22;2582;48.770;9.190;2023-12-28T03:44:05;7.60;99.90
5128;DHT22;2582;48.770;9.190;2023-12-28T03:46:30;7.60;99.90
5128;DHT22;2582;48.770;9.190;2023-12-28T03:48:56;7.60;99.90
5128;DHT22;2582;48.770;9.190;2023-12-28T03:51:22;7.60;99.90
5128;DHT22;2582;48.770;9.190;2023-12-28T03:53:48;7.80;99.90
5128;DHT22;2582;48.770;9.190;2023-12-28T03:56:21;7.90;99.90
5128;DHT22;2582;48.770;9.190;2023-12-28T03:58:46;7.90;99.90
5128;DHT22;2582;48.770;9.190;2023-12-28T04:01:12;7.90;99.90
5128;DHT22;2582;48.770;9.190;2023-12-28T04:03:38;8.00;99.90
5128;DHT22;2582;48.770;9.190;2023-12-28T04:06:03;8.10;99.90
5128;DHT22;2582;48.770;9.190;2023-12-28T04:08:29;8.30;99.90
5128;DHT22;2582;48.770;9.190;2023-12-28T04:10:55;8.30;99.90
5128;DHT22;2582;48.770;9.190;2023-12-28T04:13:20;8.50;99.90
5128;DHT22;2582;48.770;9.190;2023-12-28T04:15:46;8.60;99.90
5128;DHT22;2582;48.770;9.190;2023-12-28T04:18:11;8.60;99.90
5128;DHT22;2582;48.770;9.190;2023-12-28T04:20:37;8.40;99.90
5128;DHT22;2582;48.770;9.190;2023-12-28T04:23:03;8.50;99.90
5128;DHT22;2582;48.770;9.190;2023-12-28T04:25:28;8.60;99.90
5128;DHT22;2582;48.770;9.190;2023-12-28T04:27:54;8.60;99.90
5128;DHT22;2582;48.770;9.190;2023-12-28T04:30:19;8.70;99.90
5128;DHT22;2582;48.770;9.190;2023-12-28T04:32:45;8.60;99.90
5128;DHT22;2582;48.770;9.190;2023-12-28T04:35:10;8.50;99.90
5128;DHT22;2582;48.770;9.190;2023-12-28T04:37:36;8.40;99.90
5128;DHT22;2582;48.770;9.190;2023-12-28T04:40:02;8.50;99.90
5128;DHT22;2582;48.770;9.190;2023-12-28T04:42:29;8.60;99.90
5128;DHT22;2582;48.770;9.190;2023-12-28T04:44:54;8.60;99.90
5128;DHT22;2582;48.770;9.190;2023-12-28T04:47:20;8.80;99.90
5128;DHT22;2582;48.770;9.190;2023-12-28T04:49:45;9.00;99.90
5128;DHT22;2582;48.770;9.190;2023-12-28T04:52:11;9.10;99.50
5128;DHT22;2582;48.770;9.190;2023-12-28T04:54:40;9.30;99.40
5128;DHT22;2582;48.770;9.190;2023-12-28T04:57:05;9.30;99.40
5128;DHT22;2582;48.770;9.190;2023-12-28T04:59:39;9.40;98.90
5128;DHT22;2582;48.770;9.190;2023-12-28T05:02:05;9.40;98.60
5128;DHT22;2582;48.770;9.190;2023-12-28T05:04:31;9.50;98.90
5128;DHT22;2582;48.770;9.190;2023-12-28T05:06:57;9.40;98.50
5128;DHT22;2582;48.770;9.190;2023-12-28T05:09:22;9.50;98.10
5128;DHT22;2582;48.770;9.190;2023-12-28T05:11:48;9.60;98.50
5128;DHT22;2582;48.770;9.190;2023-12-28T05:14:13;9.60;98.90
5128;DHT22;2582;48.770;9.190;2023-12-28T05:16:39;9.60;99.40
5128;DHT22;2582;48.770;9.190;2023-12-28T05:19:04;9.60;98.80
5128;DHT22;2582;48.770;9.190;2023-12-28T05:21:30;9.60;98.80
5128;DHT22;2582;48.770;9.190;2023-12-28T05:23:55;9.60;99.30
5128;DHT22;2582;48.770;9.190;2023-12-28T05:26:21;9.50;99.20
5128;DHT22;2582;48.770;9.190;2023-12-28T05:28:48;9.60;99.30
5128;DHT22;2582;48.770;9.190;2023-12-28T05:31:13;9.50;99.60
5128;DHT22;2582;48.770;9.190;2023-12-28T05:33:39;9.60;99.90
5128;DHT22;2582;48.770;9.190;2023-12-28T05:36:05;9.60;99.80
5128;DHT22;2582;48.770;9.190;2023-12-28T05:38:31;9.70;99.60
5128;DHT22;2582;48.770;9.190;2023-12-28T05:40:57;9.70;99.20
5128;DHT22;2582;48.770;9.190;2023-12-28T05:43:22;9.90;99.00
5128;DHT22;2582;48.770;9.190;2023-12-28T05:45:48;10.00;98.30
5128;DHT22;2582;48.770;9.190;2023-12-28T05:48:13;10.10;98.40
5128;DHT22;2582;48.770;9.190;2023-12-28T05:50:39;10.20;98.40
5128;DHT22;2582;48.770;9.190;2023-12-28T05:53:05;10.30;97.80
5128;DHT22;2582;48.770;9.190;2023-12-28T05:55:30;10.40;97.60
5128;DHT22;2582;48.770;9.190;2023-12-28T05:57:56;10.50;97.50
5128;DHT22;2582;48.770;9.190;2023-12-28T06:00:22;10.60;97.90
5128;DHT22;2582;48.770;9.190;2023-12-28T06:02:47;10.60;98.20
5128;DHT22;2582;48.770;9.190;2023-12-28T06:05:17;10.40;98.90
5128;DHT22;2582;48.770;9.190;2023-12-28T06:07:43;10.30;99.20
5128;DHT22;2582;48.770;9.190;2023-12-28T06:10:09;10.50;98.90
5128;DHT22;2582;48.770;9.190;2023-12-28T06:12:34;10.60;99.00
5128;DHT22;2582;48.770;9.190;2023-12-28T06:15:00;10.70;98.90
5128;DHT22;2582;48.770;9.190;2023-12-28T06:17:26;10.70;99.20
5128;DHT22;2582;48.770;9.190;2023-12-28T06:19:52;10.80;99.30
5128;DHT22;2582;48.770;9.190;2023-12-28T06:22:18;10.70;99.60
5128;DHT22;2582;48.770;9.190;2023-12-28T06:24:43;10.60;99.80
5128;DHT22;2582;48.770;9.190;2023-12-28T06:27:09;10.60;99.90
5128;DHT22;2582;48.770;9.190;2023-12-28T06:29:34;10.70;99.90
5128;DHT22;2582;48.770;9.190;2023-12-28T06:32:00;10.80;99.80
5128;DHT22;2582;48.770;9.190;2023-12-28T06:34:26;11.00;99.70
5128;DHT22;2582;48.770;9.190;2023-12-28T06:36:51;11.00;99.90
5128;DHT22;2582;48.770;9.190;2023-12-28T06:39:17;11.00;99.90
5128;DHT22;2582;48.770;9.190;2023-12-28T06:41:47;10.80;99.90
5128;DHT22;2582;48.770;9.190;2023-12-28T06:44:13;10.80;99.90
5128;DHT22;2582;48.770;9.190;2023-12-28T06:46:40;10.90;99.90
5128;DHT22;2582;48.770;9.190;2023-12-28T06:49:05;10.90;99.90
5128;DHT22;2582;48.770;9.190;2023-12-28T06:51:31;11.00;99.90
5128;DHT22;2582;48.770;9.190;2023-12-28T06:53:57;11.10;99.90
5128;DHT22;2582;48.770;9.190;2023-12-28T06:56:22;11.10;99.90
5128;DHT22;2582;48.770;9.190;2023-12-28T06:58:48;11.10;99.90
5128;DHT22;2582;48.770;9.190;2023-12-28T07:01:14;11.20;99.90
5128;DHT22;2582;48.770;9.190;2023-12-28T07:03:39;11.20;99.90
5128;DHT22;2582;48.770;9.190;2023-12-28T07:06:05;11.30;99.90
5128;DHT22;2582;48.770;9.190;2023-12-28T07:08:31;11.40;99.90
5128;DHT22;2582;48.770;9.190;2023-12-28T07:10:57;11.20;99.90
5128;DHT22;2582;48.770;9.190;2023-12-28T07:13:25;11.20;99.90
5128;DHT22;2582;48.770;9.190;2023-12-28T07:15:51;11.30;99.90
5128;DHT22;2582;48.770;9.190;2023-12-28T07:18:17;11.10;99.90
5128;DHT22;2582;48.770;9.190;2023-12-28T07:20:42;11.10;99.90
5128;DHT22;2582;48.770;9.190;2023-12-28T07:23:08;11.20;99.90
5128;DHT22;2582;48.770;9.190;2023-12-28T07:25:34;11.30;99.90
5128;DHT22;2582;48.770;9.190;2023-12-28T07:28:00;11.30;99.90
5128;DHT22;2582;48.770;9.190;2023-12-28T07:30:25;11.30;99.90
5128;DHT22;2582;48.770;9.190;2023-12-28T07:32:51;11.20;99.90
5128;DHT22;2582;48.770;9.190;2023-12-28T07:35:18;11.20;99.90
5128;DHT22;2582;48.770;9.190;2023-12-28T07:37:43;11.30;99.90
5128;DHT22;2582;48.770;9.190;2023-12-28T07:40:11;11.30;99.90
5128;DHT22;2582;48.770;9.190;2023-12-28T07:42:37;11.30;99.90
5128;DHT22;2582;48.770;9.190;2023-12-28T07:45:02;11.40;99.90
5128;DHT22;2582;48.770;9.190;2023-12-28T07:47:29;11.40;99.90
5128;DHT22;2582;48.770;9.190;2023-12-28T07:49:54;11.40;99.90
5128;DHT22;2582;48.770;9.190;2023-12-28T07:52:20;11.40;99.90
5128;DHT22;2582;48.770;9.190;2023-12-28T07:54:45;11.50;99.90
5128;DHT22;2582;48.770;9.190;2023-12-28T07:57:11;11.50;99.90
5128;DHT22;2582;48.770;9.190;2023-12-28T07:59:36;11.50;99.90
5128;DHT22;2582;48.770;9.190;2023-12-28T08:02:02;11.50;99.90
5128;DHT22;2582;48.770;9.190;2023-12-28T08:04:27;11.50;99.90
5128;DHT22;2582;48.770;9.190;2023-12-28T08:06:53;11.50;99.90
5128;DHT22;2582;48.770;9.190;2023-12-28T08:09:18;11.60;99.90
5128;DHT22;2582;48.770;9.190;2023-12-28T08:11:44;11.50;99.90
5128;DHT22;2582;48.770;9.190;2023-12-28T08:14:09;11.30;99.90
5128;DHT22;2582;48.770;9.190;2023-12-28T08:16:35;11.30;99.90
5128;DHT22;2582;48.770;9.190;2023-12-28T08:19:01;11.40;99.90
5128;DHT22;2582;48.770;9.190;2023-12-28T08:21:27;11.50;99.90
5128;DHT22;2582;48.770;9.190;2023-12-28T08:23:52;11.40;99.90
5128;DHT22;2582;48.770;9.190;2023-12-28T08:26:18;11.40;99.90
5128;DHT22;2582;48.770;9.190;2023-12-28T08:28:43;11.50;99.90
5128;DHT22;2582;48.770;9.190;2023-12-28T08:31:09;11.50;99.90
5128;DHT22;2582;48.770;9.190;2023-12-28T08:33:35;11.50;99.90
5128;DHT22;2582;48.770;9.190;2023-12-28T08:36:04;11.20;99.90
5128;DHT22;2582;48.770;9.190;2023-12-28T08:38:30;11.10;99.90
5128;DHT22;2582;48.770;9.190;2023-12-28T08:40:56;11.30;99.90
5128;DHT22;2582;48.770;9.190;2023-12-28T08:43:22;11.30;99.90
5128;DHT22;2582;48.770;9.190;2023-12-28T08:45:47;11.50;99.90
5128;DHT22;2582;48.770;9.190;2023-12-28T08:48:13;11.50;99.90
5128;DHT22;2582;48.770;9.190;2023-12-28T08:50:38;11.30;99.90
5128;DHT22;2582;48.770;9.190;2023-12-28T08:53:04;11.30;99.90
5128;DHT22;2582;48.770;9.190;2023-12-28T08:55:30;11.20;99.90
5128;DHT22;2582;48.770;9.190;2023-12-28T08:57:55;11.10;99.90
5128;DHT22;2582;48.770;9.190;2023-12-28T09:00:21;11.30;99.90
5128;DHT22;2582;48.770;9.190;2023-12-28T09:02:47;11.40;99.90
5128;DHT22;2582;48.770;9.190;2023-12-28T09:05:12;11.40;99.90
5128;DHT22;2582;48.770;9.190;2023-12-28T09:07:38;11.50;99.90
5128;DHT22;2582;48.770;9.190;2023-12-28T09:10:10;11.60;99.90
5128;DHT22;2582;48.770;9.190;2023-12-28T09:12:36;11.70;99.90
5128;DHT22;2582;48.770;9.190;2023-12-28T09:15:02;11.80;99.90
5128;DHT22;2582;48.770;9.190;2023-12-28T09:17:28;11.80;99.90
5128;DHT22;2582;48.770;9.190;2023-12-28T09:19:53;11.80;99.90
5128;DHT22;2582;48.770;9.190;2023-12-28T09:22:19;11.90;99.90
5128;DHT22;2582;48.770;9.190;2023-12-28T09:24:45;11.90;99.90
5128;DHT22;2582;48.770;9.190;2023-12-28T09:27:10;12.00;99.90
5128;DHT22;2582;48.770;9.190;2023-12-28T09:29:36;11.80;99.90
5128;DHT22;2582;48.770;9.190;2023-12-28T09:32:02;11.80;99.90
5128;DHT22;2582;48.770;9.190;2023-12-28T09:34:28;12.00;99.90
5128;DHT22;2582;48.770;9.190;2023-12-28T09:36:53;12.00;99.90
5128;DHT22;2582;48.770;9.190;2023-12-28T09:39:19;12.10;99.90
5128;DHT22;2582;48.770;9.190;2023-12-28T09:41:51;12.30;99.90
5128;DHT22;2582;48.770;9.190;2023-12-28T09:44:19;12.30;99.90
5128;DHT22;2582;48.770;9.190;2023-12-28T09:46:44;12.30;99.90
5128;DHT22;2582;48.770;9.190;2023-12-28T09:49:11;12.30;99.90
5128;DHT22;2582;48.770;9.190;2023-12-28T09:51:37;12.50;99.90
5128;DHT22;2582;48.770;9.190;2023-12-28T09:54:06;12.60;99.90
5128;DHT22;2582;48.770;9.190;2023-12-28T09:56:32;12.60;99.90
5128;DHT22;2582;48.770;9.190;2023-12-28T09:58:59;12.70;99.90
5128;DHT22;2582;48.770;9.190;2023-12-28T10:01:25;12.60;99.90
5128;DHT22;2582;48.770;9.190;2023-12-28T10:03:51;12.70;99.90
5128;DHT22;2582;48.770;9.190;2023-12-28T10:06:17;12.70;99.90
5128;DHT22;2582;48.770;9.190;2023-12-28T10:08:46;12.80;99.90
5128;DHT22;2582;48.770;9.190;2023-12-28T10:11:17;12.90;99.90
5128;DHT22;2582;48.770;9.190;2023-12-28T10:13:43;12.60;99.90
5128;DHT22;2582;48.770;9.190;2023-12-28T10:16:12;12.50;99.90
5128;DHT22;2582;48.770;9.190;2023-12-28T10:18:44;12.50;99.90
5128;DHT22;2582;48.770;9.190;2023-12-28T10:21:11;12.50;99.90
5128;DHT22;2582;48.770;9.190;2023-12-28T10:23:37;12.50;99.90
5128;DHT22;2582;48.770;9.190;2023-12-28T10:26:04;12.50;99.90
5128;DHT22;2582;48.770;9.190;2023-12-28T10:28:40;12.50;99.90
5128;DHT22;2582;48.770;9.190;2023-12-28T10:31:06;12.70;99.90
5128;DHT22;2582;48.770;9.190;2023-12-28T10:33:36;12.50;99.90
5128;DHT22;2582;48.770;9.190;2023-12-28T10:36:07;12.40;99.90
5128;DHT22;2582;48.770;9.190;2023-12-28T10:38:36;12.50;99.90
5128;DHT22;2582;48.770;9.190;2023-12-28T10:41:07;12.40;99.90
5128;DHT22;2582;48.770;9.190;2023-12-28T10:46:30;12.50;99.90
5128;DHT22;2582;48.770;9.190;2023-12-28T10:49:11;12.60;99.90
5128;DHT22;2582;48.770;9.190;2023-12-28T10:51:41;12.60;99.90
5128;DHT22;2582;48.770;9.190;2023-12-28T10:57:32;12.60;99.90
5128;DHT22;2582;48.770;9.190;2023-12-28T11:00:02;12.60;99.90
5128;DHT22;2582;48.770;9.190;2023-12-28T11:02:38;12.70;99.90
5128;DHT22;2582;48.770;9.190;2023-12-28T11:05:07;12.80;99.90
5128;DHT22;2582;48.770;9.190;2023-12-28T11:07:33;12.90;99.90
5128;DHT22;2582;48.770;9.190;2023-12-28T11:10:01;13.00;99.90
5128;DHT22;2582;48.770;9.190;2023-12-28T11:12:28;13.00;99.90
5128;DHT22;2582;48.770;9.190;2023-12-28T11:14:55;12.90;99.90
5128;DHT22;2582;48.770;9.190;2023-12-28T11:17:23;12.90;99.90
5128;DHT22;2582;48.770;9.190;2023-12-28T11:19:53;13.00;99.90
5128;DHT22;2582;48.770;9.190;2023-12-28T11:22:21;13.00;99.90
5128;DHT22;2582;48.770;9.190;2023-12-28T11:24:47;13.00;99.90
5128;DHT22;2582;48.770;9.190;2023-12-28T11:27:13;13.10;99.90
5128;DHT22;2582;48.770;9.190;2023-12-28T11:29:41;13.20;99.90
5128;DHT22;2582;48.770;9.190;2023-12-28T11:32:08;13.30;99.90
5128;DHT22;2582;48.770;9.190;2023-12-28T11:34:34;13.10;99.90
5128;DHT22;2582;48.770;9.190;2023-12-28T11:37:06;13.10;99.90
5128;DHT22;2582;48.770;9.190;2023-12-28T11:39:37;13.20;99.90
5128;DHT22;2582;48.770;9.190;2023-12-28T11:42:08;13.20;99.90
5128;DHT22;2582;48.770;9.190;2023-12-28T11:44:44;13.00;99.90
5128;DHT22;2582;48.770;9.190;2023-12-28T11:47:17;13.10;99.90
5128;DHT22;2582;48.770;9.190;2023-12-28T11:49:46;13.00;99.90
5128;DHT22;2582;48.770;9.190;2023-12-28T11:52:23;13.10;99.90
5128;DHT22;2582;48.770;9.190;2023-12-28T11:54:50;13.30;99.90
5128;DHT22;2582;48.770;9.190;2023-12-28T11:57:16;13.40;99.90
5128;DHT22;2582;48.770;9.190;2023-12-28T11:59:42;13.40;99.90
5128;DHT22;2582;48.770;9.190;2023-12-28T12:02:08;13.50;99.90
5128;DHT22;2582;48.770;9.190;2023-12-28T12:04:35;13.50;99.90
5128;DHT22;2582;48.770;9.190;2023-12-28T12:07:04;13.60;99.90
5128;DHT22;2582;48.770;9.190;2023-12-28T12:09:31;13.60;99.90
5128;DHT22;2582;48.770;9.190;2023-12-28T12:12:03;13.60;99.90
5128;DHT22;2582;48.770;9.190;2023-12-28T12:14:30;13.20;99.90
5128;DHT22;2582;48.770;9.190;2023-12-28T12:16:57;13.30;99.90
5128;DHT22;2582;48.770;9.190;2023-12-28T12:19:24;13.00;99.90
5128;DHT22;2582;48.770;9.190;2023-12-28T12:21:52;13.00;99.90
5128;DHT22;2582;48.770;9.190;2023-12-28T12:24:18;13.10;99.90
5128;DHT22;2582;48.770;9.190;2023-12-28T12:26:45;13.30;99.90
5128;DHT22;2582;48.770;9.190;2023-12-28T12:29:11;13.30;99.90
5128;DHT22;2582;48.770;9.190;2023-12-28T12:31:37;13.50;99.90
5128;DHT22;2582;48.770;9.190;2023-12-28T12:34:03;13.40;99.90
5128;DHT22;2582;48.770;9.190;2023-12-28T12:36:29;13.30;99.90
5128;DHT22;2582;48.770;9.190;2023-12-28T12:38:55;13.40;99.90
5128;DHT22;2582;48.770;9.190;2023-12-28T12:41:21;13.40;99.90
5128;DHT22;2582;48.770;9.190;2023-12-28T12:43:47;13.20;99.90
5128;DHT22;2582;48.770;9.190;2023-12-28T12:46:12;13.40;99.90
5128;DHT22;2582;48.770;9.190;2023-12-28T12:48:38;13.50;99.90
5128;DHT22;2582;48.770;9.190;2023-12-28T12:51:06;13.70;99.90
5128;DHT22;2582;48.770;9.190;2023-12-28T12:53:35;13.60;99.90
5128;DHT22;2582;48.770;9.190;2023-12-28T12:56:04;13.70;99.90
5128;DHT22;2582;48.770;9.190;2023-12-28T12:58:30;13.80;99.90
5128;DHT22;2582;48.770;9.190;2023-12-28T13:00:56;13.80;99.90
5128;DHT22;2582;48.770;9.190;2023-12-28T13:03:22;13.80;99.90
5128;DHT22;2582;48.770;9.190;2023-12-28T13:05:48;13.90;99.90
5128;DHT22;2582;48.770;9.190;2023-12-28T13:08:13;13.80;99.90
5128;DHT22;2582;48.770;9.190;2023-12-28T13:10:39;13.80;99.90
5128;DHT22;2582;48.770;9.190;2023-12-28T13:13:08;13.70;99.90
5128;DHT22;2582;48.770;9.190;2023-12-28T13:15:34;13.70;99.90
5128;DHT22;2582;48.770;9.190;2023-12-28T13:17:59;13.70;99.90
5128;DHT22;2582;48.770;9.190;2023-12-28T13:20:25;13.60;99.90
5128;DHT22;2582;48.770;9.190;2023-12-28T13:22:50;13.80;99.90
5128;DHT22;2582;48.770;9.190;2023-12-28T13:25:16;13.80;99.90
5128;DHT22;2582;48.770;9.190;2023-12-28T13:27:41;13.80;99.90
5128;DHT22;2582;48.770;9.190;2023-12-28T13:30:07;13.70;99.90
5128;DHT22;2582;48.770;9.190;2023-12-28T13:32:33;13.60;99.90
5128;DHT22;2582;48.770;9.190;2023-12-28T13:34:59;13.60;99.90
5128;DHT22;2582;48.770;9.190;2023-12-28T13:37:25;13.50;99.90
5128;DHT22;2582;48.770;9.190;2023-12-28T13:39:50;13.60;99.90
5128;DHT22;2582;48.770;9.190;2023-12-28T13:42:16;13.60;99.90
5128;DHT22;2582;48.770;9.190;2023-12-28T13:44:41;13.30;99.90
5128;DHT22;2582;48.770;9.190;2023-12-28T13:47:08;13.40;99.90
5128;DHT22;2582;48.770;9.190;2023-12-28T13:49:34;13.30;99.90
5128;DHT22;2582;48.770;9.190;2023-12-28T13:52:00;13.00;99.90
5128;DHT22;2582;48.770;9.190;2023-12-28T13:54:25;13.00;99.90
5128;DHT22;2582;48.770;9.190;2023-12-28T13:56:51;13.10;99.90
5128;DHT22;2582;48.770;9.190;2023-12-28T13:59:22;13.20;99.90
5128;DHT22;2582;48.770;9.190;2023-12-28T14:01:48;13.10;99.90
5128;DHT22;2582;48.770;9.190;2023-12-28T14:04:13;13.00;99.90
5128;DHT22;2582;48.770;9.190;2023-12-28T14:06:39;12.90;99.90
5128;DHT22;2582;48.770;9.190;2023-12-28T14:09:05;12.80;99.90
5128;DHT22;2582;48.770;9.190;2023-12-28T14:11:30;12.90;99.90
5128;DHT22;2582;48.770;9.190;2023-12-28T14:13:56;12.80;99.90
5128;DHT22;2582;48.770;9.190;2023-12-28T14:16:22;12.90;99.90
5128;DHT22;2582;48.770;9.190;2023-12-28T14:18:48;12.90;99.90
5128;DHT22;2582;48.770;9.190;2023-12-28T14:21:14;12.70;99.90
5128;DHT22;2582;48.770;9.190;2023-12-28T14:23:40;12.70;99.90
5128;DHT22;2582;48.770;9.190;2023-12-28T14:26:12;12.60;99.90
5128;DHT22;2582;48.770;9.190;2023-12-28T14:28:39;12.60;99.90
5128;DHT22;2582;48.770;9.190;2023-12-28T14:31:05;12.50;99.90
5128;DHT22;2582;48.770;9.190;2023-12-28T14:33:31;12.50;99.90
5128;DHT22;2582;48.770;9.190;2023-12-28T14:35:57;12.60;99.90
5128;DHT22;2582;48.770;9.190;2023-12-28T14:38:23;12.60;99.90
5128;DHT22;2582;48.770;9.190;2023-12-28T14:40:48;12.80;99.90
5128;DHT22;2582;48.770;9.190;2023-12-28T14:43:17;13.00;99.90
5128;DHT22;2582;48.770;9.190;2023-12-28T14:45:42;13.00;99.90
5128;DHT22;2582;48.770;9.190;2023-12-28T14:48:08;13.00;99.90
5128;DHT22;2582;48.770;9.190;2023-12-28T14:50:34;12.90;99.90
5128;DHT22;2582;48.770;9.190;2023-12-28T14:53:00;13.00;99.90
5128;DHT22;2582;48.770;9.190;2023-12-28T14:55:26;13.00;99.90
5128;DHT22;2582;48.770;9.190;2023-12-28T14:57:53;12.90;99.90
5128;DHT22;2582;48.770;9.190;2023-12-28T15:00:18;12.90;99.90
5128;DHT22;2582;48.770;9.190;2023-12-28T15:02:44;12.70;99.90
5128;DHT22;2582;48.770;9.190;2023-12-28T15:05:10;12.40;99.90
5128;DHT22;2582;48.770;9.190;2023-12-28T15:07:38;12.50;99.90
5128;DHT22;2582;48.770;9.190;2023-12-28T15:10:04;12.70;99.90
5128;DHT22;2582;48.770;9.190;2023-12-28T15:12:30;12.70;99.90
5128;DHT22;2582;48.770;9.190;2023-12-28T15:14:55;12.70;99.90
5128;DHT22;2582;48.770;9.190;2023-12-28T15:17:21;12.60;99.90
5128;DHT22;2582;48.770;9.190;2023-12-28T15:19:48;12.60;99.90
5128;DHT22;2582;48.770;9.190;2023-12-28T15:22:14;12.60;99.90
5128;DHT22;2582;48.770;9.190;2023-12-28T15:24:40;12.60;99.90
5128;DHT22;2582;48.770;9.190;2023-12-28T15:27:05;12.70;99.90
5128;DHT22;2582;48.770;9.190;2023-12-28T15:29:33;12.50;99.90
5128;DHT22;2582;48.770;9.190;2023-12-28T15:31:58;12.60;99.90
5128;DHT22;2582;48.770;9.190;2023-12-28T15:34:24;12.50;99.90
5128;DHT22;2582;48.770;9.190;2023-12-28T15:36:49;12.60;99.90
5128;DHT22;2582;48.770;9.190;2023-12-28T15:39:15;12.70;99.90
5128;DHT22;2582;48.770;9.190;2023-12-28T15:41:40;12.70;99.90
5128;DHT22;2582;48.770;9.190;2023-12-28T15:44:06;12.70;99.90
5128;DHT22;2582;48.770;9.190;2023-12-28T15:46:32;12.40;99.90
5128;DHT22;2582;48.770;9.190;2023-12-28T15:48:58;12.20;99.90
5128;DHT22;2582;48.770;9.190;2023-12-28T15:51:24;12.10;99.90
5128;DHT22;2582;48.770;9.190;2023-12-28T15:53:50;12.00;99.90
5128;DHT22;2582;48.770;9.190;2023-12-28T15:56:16;12.20;99.90
5128;DHT22;2582;48.770;9.190;2023-12-28T15:58:41;12.30;99.90
5128;DHT22;2582;48.770;9.190;2023-12-28T16:01:08;12.10;99.90
5128;DHT22;2582;48.770;9.190;2023-12-28T16:03:33;12.10;99.90
5128;DHT22;2582;48.770;9.190;2023-12-28T16:05:59;12.10;99.90
5128;DHT22;2582;48.770;9.190;2023-12-28T16:08:24;12.20;99.90